Time;durP1;ratioP1;P1;durP2;ratioP2;P2;SDS_P1;SDS_P2;PMS_P1;PMS_P2;Temp;Humidity;BMP_temperature;BMP_pressure;BME280_temperature;BME280_humidity;BME280_pressure;Samples;Min_cycle;Max_cycle;Signal;HPM_P1;HPM_P2
2022/04/17 00:01:23;;;;;;;5.40;3.95;;;20.40;99.90;;;;;;5070292;28;20250;-72
2022/04/17 00:03:54;;;;;;;4.85;3.90;;;20.50;99.90;;;;;;5073285;28;20202;-72
2022/04/17 00:06:24;;;;;;;4.97;3.80;;;20.60;99.90;;;;;;5069408;28;20247;-72
2022/04/17 00:08:57;;;;;;;4.80;4.07;;;20.80;99.90;;;;;;5073617;28;20188;-72
2022/04/17 00:11:27;;;;;;;5.35;3.60;;;20.80;99.90;;;;;;5070117;28;20237;-72
2022/04/17 00:13:59;;;;;;;4.53;3.10;;;20.90;99.90;;;;;;5070323;28;20189;-72
2022/04/17 00:16:31;;;;;;;4.82;3.00;;;21.00;99.90;;;;;;5072710;28;20566;-72
2022/04/17 00:19:02;;;;;;;6.18;2.70;;;21.10;99.90;;;;;;5069846;28;20616;-71
2022/04/17 00:21:33;;;;;;;2.80;2.60;;;21.20;99.90;;;;;;5070568;28;20197;-72
2022/04/17 00:24:03;;;;;;;5.30;3.35;;;21.30;99.90;;;;;;5074121;28;20193;-71
2022/04/17 00:26:34;;;;;;;4.30;2.80;;;21.40;99.90;;;;;;5068254;28;20193;-71
2022/04/17 00:29:05;;;;;;;3.55;2.30;;;21.50;99.90;;;;;;5070962;28;20197;-72
2022/04/17 00:31:38;;;;;;;6.03;2.80;;;21.60;99.90;;;;;;5067842;28;20201;-72
2022/04/17 00:34:11;;;;;;;2.55;2.05;;;21.70;99.90;;;;;;5070271;28;20680;-72
2022/04/17 00:36:42;;;;;;;2.80;1.90;;;21.80;99.90;;;;;;5071611;28;20188;-72
2022/04/17 00:39:12;;;;;;;3.55;2.20;;;21.90;99.90;;;;;;5069237;28;20220;-72
2022/04/17 00:41:43;;;;;;;3.83;2.08;;;21.90;99.90;;;;;;5069804;28;20201;-72
2022/04/17 00:44:15;;;;;;;2.63;1.90;;;22.00;99.90;;;;;;5065015;28;20656;-72
2022/04/17 00:46:47;;;;;;;2.97;2.00;;;22.10;99.90;;;;;;5065362;28;20193;-71
2022/04/17 00:49:18;;;;;;;2.25;1.80;;;22.10;99.90;;;;;;5071452;28;20201;-72
2022/04/17 00:51:50;;;;;;;2.50;1.58;;;22.20;99.90;;;;;;5072156;28;20243;-72
2022/04/17 00:54:26;;;;;;;3.50;1.60;;;22.20;99.90;;;;;;5073437;28;20691;-72
2022/04/17 00:56:57;;;;;;;3.35;1.90;;;22.30;99.90;;;;;;5066561;28;20220;-75
2022/04/17 00:59:29;;;;;;;9.73;6.68;;;22.30;99.90;;;;;;5074403;28;20209;-72
2022/04/17 01:02:01;;;;;;;17.70;12.45;;;22.40;99.90;;;;;;5071723;28;20682;-72
2022/04/17 01:04:32;;;;;;;26.83;16.33;;;22.60;99.90;;;;;;5070515;28;20806;-74
2022/04/17 01:07:03;;;;;;;3.92;1.92;;;22.60;99.90;;;;;;5067825;28;20201;-73
2022/04/17 01:09:34;;;;;;;3.45;2.67;;;22.60;99.90;;;;;;5072280;28;20656;-73
2022/04/17 01:12:08;;;;;;;8.82;5.70;;;22.70;99.90;;;;;;5072804;28;20619;-74
2022/04/17 01:14:41;;;;;;;7.38;4.22;;;22.80;99.90;;;;;;5074251;28;20607;-75
2022/04/17 01:17:14;;;;;;;4.00;1.88;;;23.00;99.90;;;;;;5070211;28;20197;-74
2022/04/17 01:19:45;;;;;;;2.33;1.17;;;23.10;99.90;;;;;;5061625;28;20300;-73
2022/04/17 01:22:18;;;;;;;2.80;1.10;;;23.10;99.90;;;;;;5071700;28;20652;-74
2022/04/17 01:27:37;;;;;;;1.50;1.40;;;23.20;99.90;;;;;;5070921;28;20262;-73
2022/04/17 01:30:09;;;;;;;1.13;1.02;;;23.30;99.90;;;;;;5074107;28;20200;-72
2022/04/17 01:32:39;;;;;;;3.00;1.38;;;23.40;99.90;;;;;;5070834;28;20197;-72
2022/04/17 01:35:11;;;;;;;2.05;1.23;;;23.30;99.90;;;;;;5070235;28;20242;-72
2022/04/17 01:37:43;;;;;;;5.72;1.08;;;23.20;99.90;;;;;;5069321;28;20200;-73
2022/04/17 01:40:14;;;;;;;1.17;1.08;;;23.20;99.90;;;;;;5072111;28;20221;-73
2022/04/17 01:42:46;;;;;;;1.10;1.00;;;23.20;99.90;;;;;;5070450;28;20205;-73
2022/04/17 01:45:17;;;;;;;1.20;0.90;;;23.30;99.90;;;;;;5067018;28;20229;-72
2022/04/17 01:47:49;;;;;;;1.20;1.10;;;23.40;99.90;;;;;;5071833;28;20197;-73
2022/04/17 01:50:20;;;;;;;2.72;1.25;;;23.60;99.90;;;;;;5064863;28;20200;-74
2022/04/17 01:52:52;;;;;;;1.95;1.20;;;23.60;99.90;;;;;;5072339;28;20201;-73
2022/04/17 01:55:23;;;;;;;1.70;0.95;;;23.70;99.90;;;;;;5073274;28;20228;-73
2022/04/17 01:57:54;;;;;;;2.53;1.30;;;23.60;99.90;;;;;;5073302;28;20652;-72
2022/04/17 02:00:25;;;;;;;1.20;1.10;;;23.60;99.90;;;;;;5072487;28;20216;-73
2022/04/17 02:02:56;;;;;;;1.88;1.00;;;23.60;99.90;;;;;;5070305;28;20193;-72
2022/04/17 02:05:27;;;;;;;2.95;1.00;;;23.60;99.90;;;;;;5072178;28;20672;-73
2022/04/17 02:07:59;;;;;;;2.70;1.10;;;23.70;99.90;;;;;;5069276;28;20193;-73
2022/04/17 02:10:30;;;;;;;0.90;0.90;;;23.50;99.90;;;;;;5071902;28;20254;-73
2022/04/17 02:13:01;;;;;;;1.83;1.00;;;23.10;99.90;;;;;;5070294;28;20280;-73
2022/04/17 02:15:32;;;;;;;2.67;1.35;;;22.90;99.90;;;;;;5071659;28;20236;-74
2022/04/17 02:18:03;;;;;;;1.75;1.20;;;22.90;99.90;;;;;;5067439;28;20193;-72
2022/04/17 02:20:33;;;;;;;1.02;0.90;;;23.10;99.90;;;;;;5070188;28;20627;-73
2022/04/17 02:23:06;;;;;;;1.00;0.90;;;23.30;99.90;;;;;;5070923;28;20208;-72
2022/04/17 02:25:37;;;;;;;1.30;1.00;;;23.40;99.90;;;;;;5069250;28;20197;-79
2022/04/17 02:28:07;;;;;;;3.17;1.20;;;23.60;99.90;;;;;;5069152;28;20205;-71
2022/04/17 02:30:38;;;;;;;1.40;0.93;;;23.80;99.90;;;;;;5072174;28;20193;-71
2022/04/17 02:33:09;;;;;;;1.35;0.90;;;24.00;99.90;;;;;;5071321;28;20207;-70
2022/04/17 02:35:40;;;;;;;2.88;1.23;;;23.90;99.90;;;;;;5071767;28;20204;-70
2022/04/17 02:38:14;;;;;;;2.55;1.10;;;24.00;99.90;;;;;;5070158;28;20197;-71
2022/04/17 02:40:45;;;;;;;1.42;0.90;;;24.20;99.90;;;;;;5068334;28;20219;-73
2022/04/17 02:43:15;;;;;;;0.85;0.75;;;24.30;99.90;;;;;;5067815;28;20200;-72
2022/04/17 02:45:46;;;;;;;1.50;1.10;;;24.40;99.90;;;;;;5069959;28;20224;-70
2022/04/17 02:48:15;;;;;;;1.10;1.00;;;24.40;99.90;;;;;;5071367;28;20201;-71
2022/04/17 02:50:46;;;;;;;2.53;0.90;;;24.50;99.90;;;;;;5071851;28;20193;-71
2022/04/17 02:53:19;;;;;;;1.23;0.82;;;24.60;99.90;;;;;;5069128;28;20232;-70
2022/04/17 02:55:49;;;;;;;0.75;0.70;;;24.60;99.90;;;;;;5068446;28;20204;-71
2022/04/17 02:58:20;;;;;;;1.20;0.90;;;24.40;99.90;;;;;;5068522;28;20201;-71
2022/04/17 03:06:24;;;;;;;3.25;1.30;;;24.40;99.90;;;;;;5077720;28;20266;-70
2022/04/17 03:08:56;;;;;;;0.93;0.90;;;24.30;99.90;;;;;;5077941;28;20652;-71
2022/04/17 03:11:27;;;;;;;1.58;1.00;;;24.20;99.90;;;;;;5074884;28;20258;-70
2022/04/17 03:13:58;;;;;;;3.17;1.95;;;23.90;99.90;;;;;;5070166;28;20518;-71
2022/04/17 03:16:28;;;;;;;2.40;1.50;;;23.50;99.90;;;;;;5077600;28;20246;-70
2022/04/17 03:18:59;;;;;;;5.93;3.80;;;23.20;99.90;;;;;;5073961;28;20238;-71
2022/04/17 03:21:30;;;;;;;1.45;0.80;;;23.00;99.90;;;;;;5074938;28;20558;-71
2022/04/17 03:24:02;;;;;;;2.30;0.77;;;22.90;99.90;;;;;;5077374;28;20192;-71
2022/04/17 03:26:33;;;;;;;2.17;0.68;;;23.10;99.90;;;;;;5078086;28;20192;-71
2022/04/17 03:29:04;;;;;;;2.70;0.60;;;23.30;99.90;;;;;;5077646;28;20193;-70
2022/04/17 03:31:34;;;;;;;1.40;0.50;;;23.60;99.90;;;;;;5076295;28;20197;-71
2022/04/17 03:34:06;;;;;;;1.38;0.70;;;23.70;99.90;;;;;;5075836;28;20262;-71
2022/04/17 03:36:39;;;;;;;1.38;0.52;;;23.80;99.90;;;;;;5074914;28;20723;-71
2022/04/17 03:39:11;;;;;;;1.08;0.50;;;23.70;99.90;;;;;;5076565;28;20197;-72
2022/04/17 03:41:42;;;;;;;1.08;0.43;;;23.80;99.90;;;;;;5076174;28;20692;-72
2022/04/17 03:44:13;;;;;;;2.03;0.70;;;23.80;99.90;;;;;;5075536;28;20200;-71
2022/04/17 03:46:43;;;;;;;2.55;0.60;;;23.80;99.90;;;;;;5076288;28;20570;-71
2022/04/17 03:49:14;;;;;;;1.33;0.60;;;23.80;99.90;;;;;;5076611;28;20189;-72
2022/04/17 03:51:45;;;;;;;1.17;0.60;;;23.80;99.90;;;;;;5076206;28;20204;-72
2022/04/17 03:54:18;;;;;;;1.02;0.60;;;23.80;99.90;;;;;;5075694;28;20233;-73
2022/04/17 03:56:49;;;;;;;3.35;0.70;;;23.70;99.90;;;;;;5076882;28;20522;-71
2022/04/17 03:59:19;;;;;;;2.15;0.60;;;23.60;99.90;;;;;;5076949;28;20184;-72
2022/04/17 04:01:50;;;;;;;3.35;0.60;;;23.60;99.90;;;;;;5076767;28;20216;-71
2022/04/17 04:04:21;;;;;;;0.73;0.43;;;23.60;99.90;;;;;;5077122;28;20193;-71
2022/04/17 04:06:51;;;;;;;1.25;0.60;;;23.70;99.90;;;;;;5077772;28;20246;-71
2022/04/17 04:09:24;;;;;;;1.40;0.50;;;23.80;99.90;;;;;;5076994;28;20197;-72
2022/04/17 04:11:54;;;;;;;1.27;0.63;;;23.80;99.90;;;;;;5076810;28;20207;-71
2022/04/17 04:14:25;;;;;;;2.60;0.60;;;23.60;99.90;;;;;;5073842;28;20201;-71
2022/04/17 04:16:56;;;;;;;2.40;0.40;;;23.60;99.90;;;;;;5074450;28;20189;-71
2022/04/17 04:19:27;;;;;;;1.83;0.57;;;23.60;99.90;;;;;;5074028;28;20549;-78
2022/04/17 04:21:57;;;;;;;3.10;0.50;;;23.60;99.90;;;;;;5073673;28;20699;-71
2022/04/17 04:24:31;;;;;;;1.83;0.50;;;23.60;99.90;;;;;;5072800;28;20205;-70
2022/04/17 04:29:48;;;;;;;0.90;0.50;;;23.40;99.90;;;;;;5067566;28;20200;-71
2022/04/17 04:32:21;;;;;;;2.30;1.20;;;23.40;99.90;;;;;;5071965;28;20205;-71
2022/04/17 04:34:56;;;;;;;2.38;0.80;;;23.30;99.90;;;;;;5072431;28;20193;-71
2022/04/17 04:37:26;;;;;;;28.00;18.75;;;23.30;99.90;;;;;;5070157;28;20204;-72
2022/04/17 04:39:59;;;;;;;3.83;3.13;;;23.40;99.90;;;;;;5074670;28;20247;-74
2022/04/17 04:42:30;;;;;;;2.65;1.10;;;23.30;99.90;;;;;;5071794;28;20197;-72
2022/04/17 04:47:50;;;;;;;3.05;0.50;;;23.30;99.90;;;;;;5073518;28;20243;-71
2022/04/17 04:50:21;;;;;;;1.27;0.50;;;23.40;99.90;;;;;;5071719;28;20204;-70
2022/04/17 04:52:52;;;;;;;1.83;0.60;;;23.30;99.90;;;;;;5071968;28;20217;-77
2022/04/17 04:55:25;;;;;;;2.80;0.47;;;23.30;99.90;;;;;;5072667;28;20200;-71
2022/04/17 04:57:56;;;;;;;1.30;0.50;;;23.20;99.90;;;;;;5069917;28;20232;-71
2022/04/17 05:00:26;;;;;;;1.05;0.40;;;23.20;99.90;;;;;;5071391;28;20212;-72
2022/04/17 05:02:57;;;;;;;3.20;0.65;;;23.10;99.90;;;;;;5070008;28;20549;-71
2022/04/17 05:05:28;;;;;;;1.30;0.50;;;23.00;99.90;;;;;;5072874;28;20211;-73
2022/04/17 05:07:59;;;;;;;0.85;0.50;;;23.10;99.90;;;;;;5071572;28;20664;-72
2022/04/17 05:10:32;;;;;;;1.15;0.45;;;23.10;99.90;;;;;;5068833;28;20201;-72
2022/04/17 05:13:02;;;;;;;1.40;0.47;;;23.10;99.90;;;;;;5067111;28;20292;-71
2022/04/17 05:15:33;;;;;;;1.23;0.45;;;23.10;99.90;;;;;;5069876;28;20247;-73
2022/04/17 05:18:04;;;;;;;2.15;0.70;;;23.10;99.90;;;;;;5068546;28;20215;-74
2022/04/17 05:20:34;;;;;;;3.60;0.63;;;23.10;99.90;;;;;;5068638;28;20212;-72
2022/04/17 05:23:19;;;;;;;1.73;1.05;;;23.00;99.90;;;;;;5071410;28;20197;-72
2022/04/17 05:25:54;;;;;;;1.50;0.40;;;23.00;99.90;;;;;;5071203;28;20209;-71
2022/04/17 05:28:25;;;;;;;1.80;0.30;;;23.10;99.90;;;;;;5073941;28;20242;-72
2022/04/17 05:30:56;;;;;;;11.32;0.95;;;23.00;99.90;;;;;;5069910;28;20201;-74
2022/04/17 05:33:26;;;;;;;3.00;0.60;;;23.00;99.90;;;;;;5071000;28;20652;-72
2022/04/17 05:35:57;;;;;;;0.80;0.40;;;22.90;99.90;;;;;;5070968;28;20205;-71
2022/04/17 05:38:28;;;;;;;1.90;0.60;;;22.80;99.90;;;;;;5071846;28;20545;-71
2022/04/17 05:41:01;;;;;;;1.45;0.60;;;22.80;99.90;;;;;;5069898;28;20221;-72
2022/04/17 05:43:31;;;;;;;5.57;0.60;;;22.80;99.90;;;;;;5069458;28;20193;-72
2022/04/17 05:46:02;;;;;;;1.70;0.65;;;22.70;99.90;;;;;;5070695;28;20282;-72
2022/04/17 05:48:33;;;;;;;2.08;0.73;;;22.70;99.90;;;;;;5067173;28;20205;-71
2022/04/17 05:51:04;;;;;;;1.50;0.60;;;22.70;99.90;;;;;;5072116;28;20258;-71
2022/04/17 05:53:35;;;;;;;0.60;0.60;;;22.70;99.90;;;;;;5073323;28;20282;-71
2022/04/17 05:56:08;;;;;;;1.65;0.50;;;22.60;99.90;;;;;;5072858;28;20246;-71
2022/04/17 05:58:39;;;;;;;2.85;0.60;;;22.60;99.90;;;;;;5071879;28;20201;-72
2022/04/17 06:01:10;;;;;;;2.10;0.60;;;22.50;99.90;;;;;;5073145;28;20216;-72
2022/04/17 06:03:41;;;;;;;2.38;0.60;;;22.50;99.90;;;;;;5072079;28;20200;-71
2022/04/17 06:06:12;;;;;;;0.85;0.50;;;22.50;99.90;;;;;;5072665;28;20575;-71
2022/04/17 06:08:42;;;;;;;1.02;0.50;;;22.40;99.90;;;;;;5071065;28;20201;-72
2022/04/17 06:11:15;;;;;;;0.75;0.45;;;22.40;99.90;;;;;;5072684;28;20246;-71
2022/04/17 06:13:46;;;;;;;1.02;0.50;;;22.40;99.90;;;;;;5072366;28;20700;-71
2022/04/17 06:16:16;;;;;;;3.47;0.50;;;22.30;99.90;;;;;;5071186;28;20192;-71
2022/04/17 06:18:47;;;;;;;3.22;0.70;;;22.40;99.90;;;;;;5071584;28;20295;-71
2022/04/17 06:21:18;;;;;;;1.45;0.40;;;22.40;99.90;;;;;;5065201;28;20214;-71
2022/04/17 06:23:48;;;;;;;1.38;0.60;;;22.30;99.90;;;;;;5062541;28;20623;-71
2022/04/17 06:26:21;;;;;;;2.17;0.50;;;22.30;99.90;;;;;;5069932;28;20197;-71
2022/04/17 06:28:52;;;;;;;1.25;0.50;;;22.20;99.90;;;;;;5071529;28;20200;-74
2022/04/17 06:31:22;;;;;;;0.75;0.50;;;22.20;99.90;;;;;;5069249;28;20219;-71
2022/04/17 06:33:53;;;;;;;2.00;0.50;;;22.10;99.90;;;;;;5068837;28;20204;-71
2022/04/17 06:36:24;;;;;;;0.90;0.50;;;22.10;99.90;;;;;;5069642;28;20694;-72
2022/04/17 06:38:54;;;;;;;1.70;0.40;;;22.10;99.90;;;;;;5072042;28;20246;-72
2022/04/17 06:41:27;;;;;;;1.10;0.50;;;22.10;99.90;;;;;;5070009;28;20753;-76
2022/04/17 06:43:57;;;;;;;1.67;0.50;;;22.00;99.90;;;;;;5067429;28;20239;-73
2022/04/17 06:46:29;;;;;;;1.85;0.82;;;22.00;99.90;;;;;;5069058;28;20197;-71
2022/04/17 06:49:00;;;;;;;0.77;0.52;;;22.00;99.90;;;;;;5066896;28;20247;-72
2022/04/17 06:51:30;;;;;;;1.77;0.57;;;21.90;99.90;;;;;;5065111;28;20196;-72
2022/04/17 06:54:01;;;;;;;2.10;0.50;;;21.80;99.90;;;;;;5069243;28;20232;-71
2022/04/17 06:56:33;;;;;;;2.53;0.50;;;21.80;99.90;;;;;;5068827;28;20246;-72
2022/04/17 06:59:05;;;;;;;0.90;0.50;;;21.70;99.90;;;;;;5065175;28;20247;-73
2022/04/17 07:01:36;;;;;;;1.90;0.40;;;21.70;99.90;;;;;;5059269;28;20645;-71
2022/04/17 07:04:07;;;;;;;1.83;0.60;;;21.70;99.90;;;;;;5064474;28;20239;-75
2022/04/17 07:06:37;;;;;;;1.30;0.70;;;21.60;99.90;;;;;;5064189;28;20193;-80
2022/04/17 07:09:08;;;;;;;0.70;0.55;;;21.60;99.90;;;;;;5063143;28;20208;-79
2022/04/17 07:11:42;;;;;;;1.42;0.43;;;21.50;99.90;;;;;;5063279;28;20209;-74
2022/04/17 07:14:14;;;;;;;1.05;0.50;;;21.50;99.90;;;;;;5065773;28;20568;-73
2022/04/17 07:16:47;;;;;;;1.00;0.57;;;21.40;99.90;;;;;;5058823;28;20209;-82
2022/04/17 07:19:17;;;;;;;2.28;0.65;;;21.40;99.90;;;;;;5058083;28;20205;-80
2022/04/17 07:21:48;;;;;;;3.00;0.85;;;21.30;99.90;;;;;;5064017;28;20220;-78
2022/04/17 07:24:19;;;;;;;4.03;1.00;;;21.20;99.90;;;;;;5059765;28;20197;-81
2022/04/17 07:26:53;;;;;;;2.78;0.90;;;21.20;99.90;;;;;;5062534;28;20212;-77
2022/04/17 07:29:23;;;;;;;0.88;0.70;;;21.20;99.90;;;;;;5062001;28;20231;-76
2022/04/17 07:31:55;;;;;;;0.70;0.70;;;21.10;99.90;;;;;;5060090;28;20209;-80
2022/04/17 07:34:26;;;;;;;0.93;0.75;;;21.10;99.90;;;;;;5061145;28;20200;-80
2022/04/17 07:36:57;;;;;;;1.13;0.70;;;21.00;99.90;;;;;;5060930;28;20203;-75
2022/04/17 07:39:27;;;;;;;1.45;0.70;;;21.00;99.90;;;;;;5063029;28;20258;-75
2022/04/17 07:42:01;;;;;;;2.30;0.70;;;20.90;99.90;;;;;;5063258;28;20221;-78
2022/04/17 07:44:32;;;;;;;1.38;0.60;;;20.90;99.90;;;;;;5059591;28;20224;-80
2022/04/17 07:47:03;;;;;;;2.05;0.85;;;20.90;99.90;;;;;;5062150;28;20227;-78
2022/04/17 07:49:34;;;;;;;2.42;0.70;;;20.90;99.90;;;;;;5066379;28;20201;-71
2022/04/17 07:52:05;;;;;;;1.27;0.68;;;20.80;99.90;;;;;;5065222;28;20193;-72
2022/04/17 07:54:35;;;;;;;4.07;0.70;;;20.80;99.90;;;;;;5071900;28;20232;-71
2022/04/17 07:57:13;;;;;;;2.08;0.93;;;20.80;99.90;;;;;;5066515;28;20739;-71
2022/04/17 07:59:44;;;;;;;1.40;0.93;;;20.70;99.90;;;;;;5071813;28;20304;-71
2022/04/17 08:02:22;;;;;;;2.60;0.93;;;20.70;99.90;;;;;;5068574;28;20213;-71
2022/04/17 08:04:54;;;;;;;1.05;0.70;;;20.70;99.90;;;;;;5071988;28;20207;-71
2022/04/17 08:07:24;;;;;;;2.25;0.98;;;20.60;99.90;;;;;;5069541;28;20193;-75
2022/04/17 08:09:55;;;;;;;2.30;0.90;;;20.50;99.90;;;;;;5071376;28;20220;-77
2022/04/17 08:12:28;;;;;;;1.00;0.75;;;20.50;99.90;;;;;;5072407;28;20201;-79
2022/04/17 08:14:58;;;;;;;2.08;0.90;;;20.50;99.90;;;;;;5066916;28;20197;-79
2022/04/17 08:17:29;;;;;;;2.22;0.80;;;20.50;99.90;;;;;;5073363;28;20200;-77
2022/04/17 08:19:59;;;;;;;4.95;1.00;;;20.40;99.90;;;;;;5068479;28;20201;-77
2022/04/17 08:22:30;;;;;;;2.85;0.90;;;20.40;99.90;;;;;;5070429;28;20254;-78
2022/04/17 08:25:00;;;;;;;1.88;0.90;;;20.40;99.90;;;;;;5071881;28;20246;-79
2022/04/17 08:27:33;;;;;;;1.38;0.60;;;20.40;99.90;;;;;;5070662;28;20200;-77
2022/04/17 08:30:04;;;;;;;1.50;0.90;;;20.40;99.90;;;;;;5072648;28;20239;-75
2022/04/17 08:32:35;;;;;;;1.50;0.85;;;20.30;99.90;;;;;;5071851;28;20640;-77
2022/04/17 08:35:07;;;;;;;1.25;0.80;;;20.30;99.90;;;;;;5070945;28;20234;-78
2022/04/17 08:37:38;;;;;;;2.38;0.95;;;20.30;99.90;;;;;;5068666;28;20199;-79
2022/04/17 08:40:09;;;;;;;1.40;1.00;;;20.20;99.90;;;;;;5070358;28;20243;-79
2022/04/17 08:42:42;;;;;;;2.53;1.00;;;20.20;99.90;;;;;;5069190;28;20217;-71
2022/04/17 08:45:13;;;;;;;1.83;0.80;;;20.20;99.90;;;;;;5063307;28;20248;-78
2022/04/17 08:47:44;;;;;;;3.13;1.10;;;20.10;99.90;;;;;;5067730;28;20274;-79
2022/04/17 08:50:16;;;;;;;1.92;1.00;;;20.10;99.90;;;;;;5070861;28;20262;-78
2022/04/17 08:52:49;;;;;;;2.63;1.20;;;20.10;99.90;;;;;;5071314;28;20640;-79
2022/04/17 08:55:20;;;;;;;1.95;1.02;;;20.10;99.90;;;;;;5028302;28;20205;-77
2022/04/17 08:57:53;;;;;;;2.33;1.00;;;20.10;99.90;;;;;;5026484;28;20194;-71
2022/04/17 09:00:24;;;;;;;2.70;1.35;;;20.10;99.90;;;;;;5026816;28;20245;-78
2022/04/17 09:02:55;;;;;;;1.98;1.00;;;20.00;99.90;;;;;;5027480;28;20269;-75
2022/04/17 09:05:26;;;;;;;2.40;1.02;;;20.10;99.90;;;;;;5027009;28;20292;-75
2022/04/17 09:07:57;;;;;;;2.53;1.10;;;20.00;99.90;;;;;;5032789;28;20236;-73
2022/04/17 09:10:29;;;;;;;2.85;1.10;;;20.00;99.90;;;;;;5031747;28;20198;-71
2022/04/17 09:13:02;;;;;;;2.22;1.10;;;20.00;99.90;;;;;;5027121;28;20611;-73
2022/04/17 09:15:34;;;;;;;2.13;1.02;;;20.00;99.90;;;;;;5026579;28;20209;-71
2022/04/17 09:18:07;;;;;;;2.03;1.10;;;20.00;99.90;;;;;;5026062;28;20267;-71
2022/04/17 09:20:38;;;;;;;1.98;1.20;;;19.90;99.90;;;;;;5026377;28;20202;-74
2022/04/17 09:23:08;;;;;;;2.05;1.10;;;19.90;99.90;;;;;;5028131;28;20222;-78
2022/04/17 09:25:40;;;;;;;2.88;1.20;;;19.90;99.90;;;;;;5029456;28;20195;-71
2022/04/17 09:28:13;;;;;;;3.72;1.30;;;19.80;99.90;;;;;;5030281;28;20186;-71
2022/04/17 09:30:45;;;;;;;5.28;1.52;;;19.80;99.90;;;;;;5026102;28;20199;-72
2022/04/17 09:33:17;;;;;;;3.65;1.42;;;19.80;99.90;;;;;;5029887;28;20187;-71
2022/04/17 09:35:57;;;;;;;5.75;1.50;;;19.80;99.90;;;;;;5028298;28;20289;-73
2022/04/17 09:38:32;;;;;;;3.90;1.40;;;19.80;99.90;;;;;;5024314;28;20268;-71
2022/04/17 09:41:09;;;;;;;2.70;1.35;;;19.70;99.90;;;;;;5026232;28;20259;-71
2022/04/17 09:43:43;;;;;;;5.43;1.30;;;19.70;99.90;;;;;;5027935;28;20320;-71
2022/04/17 09:46:15;;;;;;;2.97;1.55;;;19.70;99.90;;;;;;5026928;28;20226;-71
2022/04/17 09:48:46;;;;;;;3.45;1.55;;;19.70;99.90;;;;;;5027927;28;20288;-71
2022/04/17 09:51:24;;;;;;;2.55;1.77;;;19.70;99.90;;;;;;5030120;28;20202;-72
2022/04/17 09:54:02;;;;;;;4.32;1.40;;;19.70;99.90;;;;;;5047322;28;20228;-71
2022/04/17 09:56:38;;;;;;;1.77;1.42;;;19.70;99.90;;;;;;5067121;28;20616;-74
2022/04/17 09:59:21;;;;;;;1.88;1.27;;;19.70;99.90;;;;;;5064438;28;20197;-71
2022/04/17 10:01:52;;;;;;;2.28;1.50;;;19.70;99.90;;;;;;5066489;28;20192;-71
2022/04/17 10:04:24;;;;;;;5.82;1.50;;;19.60;99.90;;;;;;5069142;28;20296;-71
2022/04/17 10:06:55;;;;;;;3.22;1.60;;;19.70;99.90;;;;;;5070892;28;20197;-70
2022/04/17 10:09:26;;;;;;;2.92;1.50;;;19.60;99.90;;;;;;5070005;28;20204;-71
2022/04/17 10:11:59;;;;;;;4.45;1.40;;;19.60;99.90;;;;;;5070447;28;20193;-71
2022/04/17 10:14:33;;;;;;;4.25;1.50;;;19.60;99.90;;;;;;5069224;28;20667;-70
2022/04/17 10:17:05;;;;;;;2.78;1.23;;;19.60;99.90;;;;;;5072717;28;20185;-70
2022/04/17 10:19:37;;;;;;;3.85;1.55;;;19.60;99.90;;;;;;5063507;28;20197;-71
2022/04/17 10:22:11;;;;;;;3.53;1.33;;;19.60;99.90;;;;;;5067051;28;20247;-71
2022/04/17 10:24:51;;;;;;;4.10;1.30;;;19.60;99.90;;;;;;5071547;28;20246;-71
2022/04/17 10:27:25;;;;;;;3.30;1.38;;;19.60;99.90;;;;;;5067612;28;20224;-71
2022/04/17 10:30:04;;;;;;;4.22;1.67;;;19.50;99.90;;;;;;5071657;28;20196;-71
2022/04/17 10:33:08;;;;;;;2.28;1.50;;;19.60;99.90;;;;;;5069171;28;20205;-71
2022/04/17 10:36:02;;;;;;;4.47;1.48;;;19.50;99.90;;;;;;5065122;28;20283;-71
2022/04/17 10:38:44;;;;;;;3.00;1.52;;;19.50;99.90;;;;;;5069446;28;20243;-71
2022/04/17 10:41:15;;;;;;;1.90;1.30;;;19.50;99.90;;;;;;5067112;28;20250;-75
2022/04/17 10:44:03;;;;;;;3.15;1.30;;;19.40;99.90;;;;;;5071077;28;20274;-75
2022/04/17 10:46:51;;;;;;;4.03;1.48;;;19.40;99.90;;;;;;5068471;28;20197;-71
2022/04/17 10:49:23;;;;;;;3.17;1.42;;;19.40;99.90;;;;;;5071217;28;20193;-71
2022/04/17 10:51:55;;;;;;;2.97;1.15;;;19.40;99.90;;;;;;5070710;28;20193;-71
2022/04/17 10:54:26;;;;;;;2.95;1.13;;;19.40;99.90;;;;;;5067875;28;20228;-71
2022/04/17 10:57:08;;;;;;;1.40;0.98;;;19.40;99.90;;;;;;5068083;28;20201;-71
2022/04/17 10:59:40;;;;;;;1.33;0.95;;;19.40;99.90;;;;;;5068708;28;20200;-71
2022/04/17 11:05:07;;;;;;;2.95;1.00;;;19.40;99.90;;;;;;5103192;27;20581;-69
2022/04/17 11:07:37;;;;;;;1.92;0.93;;;19.40;99.90;;;;;;5087817;28;20201;-69
2022/04/17 11:10:23;;;;;;;4.63;1.30;;;19.40;99.90;;;;;;5093883;28;20196;-69
2022/04/17 11:13:01;;;;;;;1.85;0.82;;;19.40;99.90;;;;;;5090275;28;20218;-69
2022/04/17 11:15:32;;;;;;;2.90;1.17;;;19.40;99.90;;;;;;5093408;28;20521;-69
2022/04/17 11:18:04;;;;;;;2.20;1.10;;;19.30;99.90;;;;;;5088759;28;20211;-69
2022/04/17 11:20:39;;;;;;;1.63;0.90;;;19.30;99.90;;;;;;5086229;28;20331;-70
2022/04/17 11:23:13;;;;;;;1.98;1.27;;;19.30;99.90;;;;;;5087378;28;20619;-72
2022/04/17 11:25:53;;;;;;;2.45;0.90;;;19.30;99.90;;;;;;5085488;28;20188;-71
2022/04/17 11:28:40;;;;;;;3.22;1.20;;;19.20;99.90;;;;;;5085651;28;20279;-74
2022/04/17 11:31:11;;;;;;;2.85;1.00;;;19.20;99.90;;;;;;5081408;28;20601;-79
2022/04/17 11:33:41;;;;;;;1.83;0.93;;;19.30;99.90;;;;;;5096915;28;20191;-77
2022/04/17 11:36:15;;;;;;;4.22;1.40;;;19.20;99.90;;;;;;5088019;28;20547;-77
2022/04/17 11:38:51;;;;;;;1.80;0.90;;;19.20;99.90;;;;;;5092339;28;20189;-78
2022/04/17 11:41:26;;;;;;;2.05;0.98;;;19.20;99.90;;;;;;5089173;28;20248;-72
2022/04/17 11:44:05;;;;;;;2.60;1.00;;;19.20;99.90;;;;;;5087634;28;20261;-72
2022/04/17 11:46:36;;;;;;;3.13;0.90;;;19.20;99.90;;;;;;5081624;28;20201;-72
2022/04/17 11:49:07;;;;;;;3.92;0.90;;;19.10;99.90;;;;;;5080964;28;20246;-71
2022/04/17 11:51:47;;;;;;;4.43;0.90;;;19.10;99.90;;;;;;5086996;28;20196;-71
2022/04/17 11:54:32;;;;;;;2.17;0.85;;;19.10;99.90;;;;;;5087715;28;20241;-71
2022/04/17 11:57:03;;;;;;;1.63;0.70;;;19.10;99.90;;;;;;5086893;28;20212;-72
2022/04/17 11:59:46;;;;;;;3.53;0.90;;;19.00;99.90;;;;;;5072337;28;20189;-71
2022/04/17 12:02:17;;;;;;;1.83;0.80;;;19.00;99.90;;;;;;5089261;28;20277;-72
2022/04/17 12:04:48;;;;;;;2.65;0.80;;;19.00;99.90;;;;;;5075921;28;20685;-72
2022/04/17 12:07:23;;;;;;;3.38;1.08;;;19.00;99.90;;;;;;5088890;28;20189;-74
2022/04/17 12:10:04;;;;;;;3.35;1.00;;;19.00;99.90;;;;;;5080583;28;20242;-74
2022/04/17 12:12:37;;;;;;;2.45;1.05;;;19.00;99.90;;;;;;5080969;28;20208;-73
2022/04/17 12:15:09;;;;;;;2.72;1.05;;;18.90;99.90;;;;;;5076430;28;20644;-71
2022/04/17 12:17:40;;;;;;;2.22;1.10;;;18.90;99.90;;;;;;5070506;28;20189;-71
2022/04/17 12:20:12;;;;;;;1.50;1.00;;;18.90;99.90;;;;;;5070446;28;20193;-75
2022/04/17 12:22:45;;;;;;;3.20;1.42;;;18.70;99.90;;;;;;5073983;28;20195;-71
2022/04/17 12:25:20;;;;;;;3.20;1.60;;;18.70;99.90;;;;;;5073603;28;20216;-72
2022/04/17 12:27:52;;;;;;;2.35;1.48;;;18.70;99.90;;;;;;5070841;28;20660;-72
2022/04/17 12:30:24;;;;;;;4.65;1.10;;;18.60;99.90;;;;;;5075274;28;20242;-73
2022/04/17 12:32:59;;;;;;;1.65;1.10;;;18.60;99.90;;;;;;5074613;28;20633;-80
2022/04/17 12:35:32;;;;;;;2.53;1.00;;;18.70;99.90;;;;;;5078573;28;20754;-78
2022/04/17 12:38:10;;;;;;;1.65;1.00;;;18.70;99.90;;;;;;5071639;28;20193;-75
2022/04/17 12:40:45;;;;;;;1.15;0.98;;;18.60;99.90;;;;;;5070128;28;20200;-73
2022/04/17 12:43:20;;;;;;;3.00;1.00;;;18.60;99.90;;;;;;5070969;28;20675;-73
2022/04/17 12:46:03;;;;;;;1.65;1.10;;;18.60;99.90;;;;;;5063293;28;20224;-72
2022/04/17 12:48:35;;;;;;;2.67;1.10;;;18.50;99.90;;;;;;5075874;28;20657;-73
2022/04/17 12:51:09;;;;;;;2.75;1.08;;;18.60;99.90;;;;;;5070586;28;20281;-71
2022/04/17 12:53:42;;;;;;;2.20;1.05;;;18.50;99.90;;;;;;5071348;28;20193;-71
2022/04/17 12:56:14;;;;;;;1.58;1.23;;;18.50;99.90;;;;;;5071701;28;20322;-71
2022/04/17 12:58:55;;;;;;;2.55;1.40;;;18.50;99.90;;;;;;5071181;28;20201;-71
2022/04/17 13:01:26;;;;;;;2.97;1.10;;;18.40;99.90;;;;;;5072167;28;20201;-71
2022/04/17 13:04:16;;;;;;;2.15;1.15;;;18.40;99.90;;;;;;5076879;28;20231;-71
2022/04/17 13:06:47;;;;;;;2.50;1.05;;;18.40;99.90;;;;;;5074384;28;20683;-72
2022/04/17 13:09:22;;;;;;;3.00;1.10;;;18.30;99.90;;;;;;5066989;28;20661;-71
2022/04/17 13:11:55;;;;;;;2.75;1.20;;;18.30;99.90;;;;;;5068312;28;20283;-71
2022/04/17 13:14:26;;;;;;;2.10;1.23;;;18.30;99.90;;;;;;5070671;28;20193;-71
2022/04/17 13:16:58;;;;;;;1.90;1.08;;;18.30;99.90;;;;;;5071993;28;20228;-72
2022/04/17 13:19:29;;;;;;;2.25;1.23;;;18.20;99.90;;;;;;5068633;28;20207;-71
2022/04/17 13:22:01;;;;;;;2.30;1.20;;;18.20;99.90;;;;;;5064958;28;20250;-74
2022/04/17 13:24:33;;;;;;;5.32;1.20;;;18.20;99.90;;;;;;5064045;28;20232;-71
2022/04/17 13:27:04;;;;;;;3.65;1.23;;;18.20;99.90;;;;;;5064145;28;20307;-73
2022/04/17 13:29:35;;;;;;;3.30;1.60;;;18.20;99.90;;;;;;5061430;28;20196;-71